createdAt,value
2018-04-13T00:00:17.503Z,0
2018-04-13T00:01:27.571Z,0
2018-04-13T00:02:37.643Z,0
2018-04-13T00:03:47.448Z,0
2018-04-13T00:04:57.528Z,0
2018-04-13T00:06:07.630Z,0
2018-04-13T00:07:17.432Z,0
2018-04-13T00:08:27.512Z,0
2018-04-13T00:09:37.602Z,0
2018-04-13T00:10:47.429Z,0
2018-04-13T00:11:57.507Z,0
2018-04-13T00:13:07.606Z,0
2018-04-13T00:14:17.700Z,0
2018-04-13T00:15:27.798Z,0
2018-04-13T00:16:37.891Z,0
2018-04-13T00:17:47.708Z,0
2018-04-13T00:18:57.526Z,0
2018-04-13T00:20:07.596Z,0
2018-04-13T00:21:17.397Z,0
2018-04-13T00:22:27.481Z,0
2018-04-13T00:23:37.303Z,0
2018-04-13T00:24:47.385Z,0
2018-04-13T00:25:57.472Z,0
2018-04-13T00:27:07.522Z,0
2018-04-13T00:28:17.331Z,0
2018-04-13T00:29:27.399Z,0
2018-04-13T00:30:37.210Z,0
2018-04-13T00:31:47.026Z,0
2018-04-13T00:32:57.099Z,0
2018-04-13T00:34:07.256Z,0
2018-04-13T00:35:17.337Z,0
2018-04-13T00:36:27.402Z,0
2018-04-13T00:37:37.481Z,0
2018-04-13T00:38:47.302Z,0
2018-04-13T00:39:57.384Z,0
2018-04-13T00:41:07.459Z,0
2018-04-13T00:42:17.545Z,0
2018-04-13T00:43:27.349Z,0
2018-04-13T00:44:37.160Z,0
2018-04-13T00:45:47.233Z,0
2018-04-13T00:46:57.053Z,0
2018-04-13T00:48:07.133Z,0
2018-04-13T00:49:17.296Z,0
2018-04-13T00:50:27.107Z,0
2018-04-13T00:51:37.016Z,0
2018-04-13T00:52:47.084Z,0
2018-04-13T00:53:57.167Z,0
2018-04-13T00:55:07.288Z,0
2018-04-13T00:56:17.356Z,0
2018-04-13T00:57:27.434Z,0
2018-04-13T00:58:37.524Z,0
2018-04-13T00:59:47.403Z,0
2018-04-13T01:00:57.476Z,0
2018-04-13T01:02:07.301Z,0
2018-04-13T01:03:17.125Z,0
2018-04-13T01:04:27.199Z,0
2018-04-13T01:05:37.267Z,0
2018-04-13T01:06:47.427Z,0
2018-04-13T01:07:57.527Z,0
2018-04-13T01:09:07.620Z,0
2018-04-13T01:10:17.710Z,0
2018-04-13T01:11:27.791Z,0
2018-04-13T01:12:37.881Z,0
2018-04-13T01:13:47.963Z,0
2018-04-13T01:14:57.775Z,0
2018-04-13T01:16:07.604Z,0
2018-04-13T01:17:17.430Z,0
2018-04-13T01:18:27.497Z,0
2018-04-13T01:19:37.588Z,0
2018-04-13T01:20:47.681Z,0
2018-04-13T01:21:57.762Z,0
2018-04-13T01:23:07.891Z,0
2018-04-13T01:24:17.975Z,0
2018-04-13T01:25:27.792Z,0
2018-04-13T01:26:37.911Z,0
2018-04-13T01:27:48.229Z,0
2018-04-13T01:28:58.311Z,0
2018-04-13T01:30:08.382Z,0
2018-04-13T01:31:18.198Z,0
2018-04-13T01:32:28.275Z,0
2018-04-13T01:33:38.087Z,0
2018-04-13T01:34:48.201Z,0
2018-04-13T01:35:58.282Z,0
2018-04-13T01:37:08.376Z,0
2018-04-13T01:38:17.914Z,0
2018-04-13T01:39:27.725Z,0
2018-04-13T01:40:37.572Z,0
2018-04-13T01:41:47.403Z,0
2018-04-13T01:42:57.526Z,0
2018-04-13T01:44:07.647Z,0
2018-04-13T01:45:17.452Z,0
2018-04-13T01:46:27.284Z,0
2018-04-13T01:47:37.360Z,0
2018-04-13T01:48:47.441Z,0
2018-04-13T01:49:57.523Z,0
2018-04-13T01:51:07.585Z,0
2018-04-13T01:52:17.665Z,0
2018-04-13T01:53:27.753Z,0
2018-04-13T01:54:37.827Z,0
2018-04-13T01:55:47.965Z,0
2018-04-13T01:56:57.770Z,0
2018-04-13T01:58:07.850Z,0
2018-04-13T01:59:17.952Z,0
2018-04-13T02:00:27.504Z,0
2018-04-13T02:01:37.637Z,0
2018-04-13T02:02:47.457Z,0
2018-04-13T02:03:57.519Z,0
2018-04-13T02:05:07.618Z,0
2018-04-13T02:06:17.702Z,0
2018-04-13T02:07:27.787Z,0
2018-04-13T02:08:37.863Z,0
2018-04-13T02:09:47.936Z,0
2018-04-13T02:10:58.012Z,0
2018-04-13T02:12:07.847Z,0
2018-04-13T02:13:17.657Z,0
2018-04-13T02:14:27.737Z,0
2018-04-13T02:15:37.825Z,0
2018-04-13T02:16:47.633Z,0
2018-04-13T02:17:57.709Z,0
2018-04-13T02:19:07.525Z,0
2018-04-13T02:20:17.329Z,0
2018-04-13T02:21:27.176Z,0
2018-04-13T02:22:37.250Z,0
2018-04-13T02:23:47.330Z,0
2018-04-13T02:24:57.450Z,0
2018-04-13T02:26:07.003Z,0
2018-04-13T02:27:16.816Z,0
2018-04-13T02:28:26.895Z,0
2018-04-13T02:29:36.967Z,0
2018-04-13T02:30:47.053Z,0
2018-04-13T02:31:57.137Z,0
2018-04-13T02:33:06.958Z,0
2018-04-13T02:34:17.230Z,0
2018-04-13T02:35:27.386Z,0
2018-04-13T02:36:37.462Z,0
2018-04-13T02:37:47.294Z,0
2018-04-13T02:38:57.381Z,0
2018-04-13T02:40:07.466Z,0
2018-04-13T02:41:17.560Z,0
2018-04-13T02:42:27.629Z,0
2018-04-13T02:43:37.786Z,0
2018-04-13T02:44:47.887Z,0
2018-04-13T02:45:57.971Z,0
2018-04-13T02:47:07.814Z,0
2018-04-13T02:48:17.896Z,0
2018-04-13T02:49:27.981Z,0
2018-04-13T02:50:38.094Z,0
2018-04-13T02:51:48.162Z,0
2018-04-13T02:52:57.974Z,0
2018-04-13T02:54:07.835Z,0
2018-04-13T02:55:17.669Z,0
2018-04-13T02:56:27.477Z,0
2018-04-13T02:57:37.558Z,0
2018-04-13T02:58:47.638Z,0
2018-04-13T02:59:57.789Z,0
2018-04-13T03:01:07.653Z,0
2018-04-13T03:02:17.749Z,0
2018-04-13T03:33:59.050Z,0
2018-04-13T03:35:09.104Z,0
2018-04-13T03:36:19.168Z,0
2018-04-13T03:37:29.238Z,0
2018-04-13T03:38:39.031Z,0
2018-04-13T03:39:49.131Z,0
2018-04-13T03:40:59.214Z,0
2018-04-13T03:42:09.315Z,0
2018-04-13T03:43:19.396Z,0
2018-04-13T03:44:29.488Z,0
2018-04-13T03:45:39.629Z,0
2018-04-13T03:46:49.707Z,0
2018-04-13T03:47:59.795Z,0
2018-04-13T03:49:09.923Z,0
2018-04-13T03:50:20.016Z,0
2018-04-13T03:51:30.134Z,0
2018-04-13T03:52:40.229Z,0
2018-04-13T03:53:50.303Z,0
2018-04-13T03:55:00.386Z,0
2018-04-13T03:56:10.468Z,0
2018-04-13T03:57:20.287Z,0
2018-04-13T03:58:30.361Z,0
2018-04-13T03:59:40.175Z,0
2018-04-13T04:00:49.979Z,0
2018-04-13T04:01:59.791Z,0
2018-04-13T04:03:09.650Z,0
2018-04-13T04:04:19.729Z,0
2018-04-13T04:05:29.290Z,0
2018-04-13T04:06:39.375Z,0
2018-04-13T04:07:49.495Z,0
2018-04-13T04:08:59.646Z,0
2018-04-13T04:10:09.451Z,0
2018-04-13T04:11:19.525Z,0
2018-04-13T04:12:29.598Z,0
2018-04-13T04:13:39.689Z,0
2018-04-13T04:14:49.526Z,0
2018-04-13T04:15:59.597Z,0
2018-04-13T04:17:09.677Z,5
2018-04-13T04:18:19.788Z,5
2018-04-13T04:19:29.614Z,5
2018-04-13T04:20:39.676Z,5
2018-04-13T04:21:49.821Z,5
2018-04-13T04:22:59.905Z,10
2018-04-13T04:24:10.091Z,10
2018-04-13T04:25:20.211Z,10
2018-04-13T04:26:30.372Z,15
2018-04-13T04:27:40.189Z,15
2018-04-13T04:28:50.012Z,15
2018-04-13T04:29:59.571Z,20
2018-04-13T04:31:09.668Z,20
2018-04-13T04:32:19.556Z,20
2018-04-13T04:33:29.628Z,20
2018-04-13T04:34:39.568Z,25
2018-04-13T04:35:49.659Z,25
2018-04-13T04:36:59.752Z,25
2018-04-13T04:38:09.569Z,25
2018-04-13T04:39:19.395Z,25
2018-04-13T04:40:29.202Z,30
2018-04-13T04:41:39.275Z,30
2018-04-13T04:42:49.360Z,30
2018-04-13T04:43:59.517Z,35
2018-04-13T04:45:09.597Z,35
2018-04-13T04:46:19.418Z,40
2018-04-13T04:47:29.245Z,40
2018-04-13T04:48:39.050Z,40
2018-04-13T04:49:49.178Z,40
2018-04-13T04:50:59.256Z,40
2018-04-13T04:52:09.323Z,45
2018-04-13T04:53:19.494Z,45
2018-04-13T04:54:29.571Z,40
2018-04-13T04:55:39.652Z,35
2018-04-13T04:56:49.738Z,35
2018-04-13T04:57:59.552Z,30
2018-04-13T04:59:09.652Z,30
2018-04-13T05:00:19.730Z,30
2018-04-13T05:01:29.820Z,30
2018-04-13T05:02:39.923Z,30
2018-04-13T05:03:50.015Z,30
2018-04-13T05:05:00.086Z,35
2018-04-13T05:06:10.183Z,35
2018-04-13T05:07:20.064Z,35
2018-04-13T05:08:30.159Z,35
2018-04-13T05:09:40.239Z,35
2018-04-13T05:10:50.336Z,35
2018-04-13T05:11:59.959Z,30
2018-04-13T05:13:10.051Z,30
2018-04-13T05:14:19.599Z,30
2018-04-13T05:15:29.674Z,30
2018-04-13T05:16:39.760Z,30
2018-04-13T05:17:49.840Z,35
2018-04-13T05:18:59.662Z,35
2018-04-13T05:20:09.486Z,40
2018-04-13T05:21:19.565Z,40
2018-04-13T05:22:29.674Z,40
2018-04-13T05:23:39.496Z,35
2018-04-13T05:24:49.577Z,35
2018-04-13T05:25:59.411Z,35
2018-04-13T05:27:09.517Z,35
2018-04-13T05:28:19.080Z,35
2018-04-13T05:29:29.263Z,40
2018-04-13T05:30:39.349Z,40
2018-04-13T05:31:49.422Z,45
2018-04-13T05:32:59.490Z,45
2018-04-13T05:34:09.044Z,50
2018-04-13T05:35:19.225Z,55
2018-04-13T05:36:29.125Z,60
2018-04-13T05:37:39.217Z,65
2018-04-13T05:38:49.039Z,75
2018-04-13T05:39:59.109Z,75
2018-04-13T05:41:08.662Z,80
2018-04-13T05:42:18.792Z,85
2018-04-13T05:43:28.880Z,85
2018-04-13T05:44:38.950Z,90
2018-04-13T05:45:48.824Z,85
2018-04-13T05:46:58.644Z,85
2018-04-13T05:48:08.710Z,85
2018-04-13T05:49:18.795Z,85
2018-04-13T05:50:28.881Z,85
2018-04-13T05:51:38.704Z,85
2018-04-13T05:52:48.532Z,85
2018-04-13T05:53:58.613Z,85
2018-04-13T05:55:08.437Z,90
2018-04-13T05:56:18.236Z,95
2018-04-13T05:57:28.051Z,100
2018-04-13T05:58:38.159Z,105
2018-04-13T05:59:48.032Z,115
2018-04-13T06:00:57.874Z,120
2018-04-13T06:02:07.946Z,130
2018-04-13T06:03:18.011Z,135
2018-04-13T06:04:28.118Z,140
2018-04-13T06:05:38.013Z,140
2018-04-13T06:06:48.108Z,145
2018-04-13T06:07:58.193Z,155
2018-04-13T06:09:08.276Z,150
2018-04-13T06:10:18.105Z,150
2018-04-13T06:11:28.194Z,150
2018-04-13T06:12:38.011Z,145
2018-04-13T06:13:48.119Z,150
2018-04-13T06:14:57.946Z,160
2018-04-13T06:16:08.019Z,145
2018-04-13T06:17:18.105Z,115
2018-04-13T06:18:28.194Z,110
2018-04-13T06:19:38.285Z,155
2018-04-13T06:20:48.362Z,150
2018-04-13T06:21:58.437Z,160
2018-04-13T06:23:08.511Z,140
2018-04-13T06:24:18.753Z,145
2018-04-13T06:25:28.910Z,150
2018-04-13T06:26:38.992Z,150
2018-04-13T06:27:49.072Z,160
2018-04-13T06:28:58.944Z,160
2018-04-13T06:30:08.755Z,165
2018-04-13T06:31:18.827Z,175
2018-04-13T06:32:28.936Z,170
2018-04-13T06:33:38.751Z,195
2018-04-13T06:34:48.853Z,175
2018-04-13T06:35:58.665Z,200
2018-04-13T06:37:08.762Z,195
2018-04-13T06:38:18.823Z,180
2018-04-13T06:39:28.708Z,195
2018-04-13T06:40:38.857Z,170
2018-04-13T06:41:48.683Z,180
2018-04-13T06:42:58.767Z,190
2018-04-13T06:44:08.847Z,160
2018-04-13T06:45:18.934Z,170
2018-04-13T06:46:29.077Z,190
2018-04-13T06:47:39.167Z,205
2018-04-13T06:48:49.750Z,180
2018-04-13T06:49:59.157Z,215
2018-04-13T06:51:08.985Z,205
2018-04-13T06:52:19.074Z,210
2018-04-13T06:53:29.150Z,180
2018-04-13T06:54:39.221Z,185
2018-04-13T06:55:49.321Z,225
2018-04-13T06:56:59.429Z,205
2018-04-13T06:58:09.535Z,190
2018-04-13T06:59:19.637Z,190
2018-04-13T07:00:29.716Z,185
2018-04-13T07:01:39.789Z,185
2018-04-13T07:02:49.890Z,180
2018-04-13T07:03:59.981Z,185
2018-04-13T07:05:09.805Z,170
2018-04-13T07:06:19.889Z,150
2018-04-13T07:07:29.709Z,155
2018-04-13T07:08:39.815Z,155
2018-04-13T07:09:49.887Z,160
2018-04-13T07:11:00.039Z,165
2018-04-13T07:12:10.155Z,170
2018-04-13T07:13:19.965Z,180
2018-04-13T07:14:30.119Z,185
2018-04-13T07:15:40.235Z,185
2018-04-13T07:16:50.057Z,200
2018-04-13T07:17:59.882Z,220
2018-04-13T07:19:09.967Z,225
2018-04-13T07:20:20.087Z,235
2018-04-13T07:21:29.897Z,240
2018-04-13T07:22:39.977Z,245
2018-04-13T07:23:49.797Z,230
2018-04-13T07:24:59.760Z,255
2018-04-13T07:26:09.448Z,250
2018-04-13T07:27:19.517Z,220
2018-04-13T07:28:29.616Z,245
2018-04-13T07:29:39.441Z,240
2018-04-13T07:30:49.278Z,235
2018-04-13T07:31:59.094Z,235
2018-04-13T07:33:10.009Z,235
2018-04-13T07:34:20.961Z,235
2018-04-13T07:35:31.075Z,235
2018-04-13T07:36:41.152Z,235
2018-04-13T07:37:51.298Z,235
2018-04-13T07:39:01.376Z,240
2018-04-13T07:40:12.124Z,240
2018-04-13T07:41:22.230Z,235
2018-04-13T07:42:32.054Z,230
2018-04-13T07:43:43.121Z,225
2018-04-13T07:44:53.221Z,235
2018-04-13T07:46:03.087Z,235
2018-04-13T07:47:12.963Z,230
2018-04-13T07:48:23.078Z,230
2018-04-13T07:49:33.190Z,245
2018-04-13T07:50:43.027Z,245
2018-04-13T07:51:52.868Z,250
2018-04-13T07:53:02.968Z,245
2018-04-13T07:54:13.058Z,235
2018-04-13T07:55:23.164Z,245
2018-04-13T07:56:33.266Z,235
2018-04-13T07:57:43.074Z,240
2018-04-13T07:58:52.890Z,230
2018-04-13T08:00:02.714Z,245
2018-04-13T08:01:13.302Z,225
2018-04-13T08:02:23.555Z,210
2018-04-13T08:03:33.277Z,205
2018-04-13T08:04:43.426Z,235
2018-04-13T08:05:53.916Z,235
2018-04-13T08:07:04.194Z,290
2018-04-13T08:08:14.268Z,280
2018-04-13T08:09:23.826Z,260
2018-04-13T08:10:33.953Z,285
2018-04-13T08:11:43.786Z,270
2018-04-13T08:12:53.639Z,265
2018-04-13T08:14:04.389Z,305
2018-04-13T08:15:13.963Z,250
2018-04-13T08:16:24.084Z,240
2018-04-13T08:17:34.171Z,235
2018-04-13T08:18:44.281Z,245
2018-04-13T08:19:54.371Z,240
2018-04-13T08:21:04.447Z,240
2018-04-13T08:22:14.526Z,290
2018-04-13T08:23:24.785Z,245
2018-04-13T08:24:34.926Z,295
2018-04-13T08:25:44.740Z,280
2018-04-13T08:26:54.853Z,270
2018-04-13T08:28:04.922Z,240
2018-04-13T08:29:15.021Z,275
2018-04-13T08:30:25.117Z,265
2018-04-13T08:31:34.661Z,250
2018-04-13T08:32:44.772Z,255
2018-04-13T08:33:55.019Z,260
2018-04-13T08:35:05.116Z,270
2018-04-13T08:36:15.270Z,270
2018-04-13T08:37:25.156Z,275
2018-04-13T08:38:34.715Z,200
2018-04-13T08:39:44.825Z,275
2018-04-13T08:40:54.991Z,295
2018-04-13T08:42:05.143Z,275
2018-04-13T08:43:15.343Z,260
2018-04-13T08:44:25.551Z,240
2018-04-13T08:45:35.661Z,235
2018-04-13T08:46:45.747Z,235
2018-04-13T08:47:55.928Z,240
2018-04-13T08:49:06.488Z,230
2018-04-13T08:50:16.744Z,225
2018-04-13T08:51:26.989Z,150
2018-04-13T08:52:37.185Z,160
2018-04-13T08:53:47.303Z,215
2018-04-13T08:54:56.894Z,225
2018-04-13T08:56:06.963Z,225
2018-04-13T08:57:17.057Z,220
2018-04-13T08:58:26.893Z,225
2018-04-13T08:59:37.030Z,235
2018-04-13T09:00:46.840Z,230
2018-04-13T09:01:56.659Z,225
2018-04-13T09:03:06.741Z,220
2018-04-13T09:04:16.544Z,225
2018-04-13T09:05:26.700Z,230
2018-04-13T09:06:37.016Z,235
2018-04-13T09:07:46.843Z,235
2018-04-13T09:08:56.691Z,220
2018-04-13T09:10:06.779Z,230
2018-04-13T09:11:16.656Z,225
2018-04-13T09:12:26.782Z,215
2018-04-13T09:13:36.881Z,210
2018-04-13T09:14:46.979Z,210
2018-04-13T09:15:56.803Z,215
2018-04-13T09:17:06.923Z,210
2018-04-13T09:18:16.780Z,210
2018-04-13T09:19:26.932Z,210
2018-04-13T09:20:37.072Z,205
2018-04-13T09:21:47.170Z,200
2018-04-13T09:22:56.710Z,200
2018-04-13T09:24:06.811Z,205
2018-04-13T09:25:16.906Z,205
2018-04-13T09:26:26.740Z,205
2018-04-13T09:27:36.814Z,205
2018-04-13T09:28:46.939Z,205
2018-04-13T09:29:57.048Z,205
2018-04-13T09:31:07.130Z,205
2018-04-13T09:32:17.201Z,205
2018-04-13T09:33:27.008Z,205
2018-04-13T09:34:37.150Z,200
2018-04-13T09:35:47.086Z,200
2018-04-13T09:36:57.169Z,200
2018-04-13T09:38:07.259Z,200
2018-04-13T09:39:17.098Z,200
2018-04-13T09:40:27.185Z,205
2018-04-13T09:41:37.293Z,200
2018-04-13T09:42:47.396Z,205
2018-04-13T09:43:57.500Z,200
2018-04-13T09:45:07.574Z,200
2018-04-13T09:46:17.837Z,200
2018-04-13T09:47:27.905Z,200
2018-04-13T09:48:37.997Z,200
2018-04-13T09:49:47.556Z,200
2018-04-13T09:50:57.643Z,200
2018-04-13T09:52:07.778Z,205
2018-04-13T09:53:17.840Z,205
2018-04-13T09:54:27.658Z,205
2018-04-13T09:55:37.485Z,205
2018-04-13T09:56:47.305Z,205
2018-04-13T09:57:57.456Z,210
2018-04-13T09:59:07.540Z,210
2018-04-13T10:00:17.611Z,205
2018-04-13T10:01:27.696Z,210
2018-04-13T10:02:37.808Z,205
2018-04-13T10:03:47.930Z,205
2018-04-13T10:04:58.027Z,205
2018-04-13T10:06:07.836Z,205
2018-04-13T10:07:17.920Z,205
2018-04-13T10:08:28.016Z,210
2018-04-13T10:09:38.095Z,210
2018-04-13T10:10:47.930Z,210
2018-04-13T10:11:58.002Z,210
2018-04-13T10:13:07.557Z,210
2018-04-13T10:14:17.640Z,210
2018-04-13T10:15:27.727Z,210
2018-04-13T10:16:37.283Z,210
2018-04-13T10:17:47.369Z,210
2018-04-13T10:18:57.465Z,210
2018-04-13T10:20:07.538Z,210
2018-04-13T10:21:17.671Z,210
2018-04-13T10:22:27.744Z,210
2018-04-13T10:23:37.859Z,215
2018-04-13T10:24:48.022Z,215
2018-04-13T10:25:58.108Z,215
2018-04-13T10:27:08.203Z,215
2018-04-13T10:28:18.017Z,215
2018-04-13T10:29:28.094Z,215
2018-04-13T10:30:38.176Z,215
2018-04-13T10:31:48.286Z,215
2018-04-13T10:32:58.385Z,215
2018-04-13T10:34:08.478Z,215
2018-04-13T10:35:18.568Z,215
2018-04-13T10:36:28.642Z,215
2018-04-13T10:37:38.719Z,220
2018-04-13T10:38:48.876Z,215
2018-04-13T10:39:58.955Z,215
2018-04-13T10:41:09.082Z,215
2018-04-13T10:42:19.156Z,215
2018-04-13T10:43:29.227Z,215
2018-04-13T10:44:39.362Z,215
2018-04-13T10:45:49.460Z,215
2018-04-13T10:46:59.564Z,215
2018-04-13T10:48:09.654Z,215
2018-04-13T10:49:19.554Z,215
2018-04-13T10:50:29.695Z,215
2018-04-13T10:51:39.766Z,215
2018-04-13T10:52:49.863Z,215
2018-04-13T10:53:59.945Z,215
2018-04-13T10:55:09.519Z,220
2018-04-13T10:56:19.619Z,215
2018-04-13T10:57:29.724Z,210
2018-04-13T10:58:39.539Z,215
2018-04-13T10:59:49.624Z,215
2018-04-13T11:00:59.779Z,215
2018-04-13T11:02:09.853Z,215
2018-04-13T11:03:19.939Z,215
2018-04-13T11:04:30.005Z,215
2018-04-13T11:05:40.089Z,215
2018-04-13T11:06:49.910Z,215
2018-04-13T11:08:00.034Z,215
2018-04-13T11:09:09.596Z,215
2018-04-13T11:10:19.886Z,215
2018-04-13T11:11:29.458Z,220
2018-04-13T11:12:39.541Z,220
2018-04-13T11:13:49.627Z,220
2018-04-13T11:14:59.442Z,220
2018-04-13T11:16:09.539Z,220
2018-04-13T11:17:19.363Z,220
2018-04-13T11:18:29.187Z,220
2018-04-13T11:19:38.802Z,220
2018-04-13T11:20:48.937Z,220
2018-04-13T11:21:58.781Z,220
2018-04-13T11:23:08.875Z,220
2018-04-13T11:24:18.970Z,220
2018-04-13T11:25:29.048Z,220
2018-04-13T11:26:39.149Z,225
2018-04-13T11:27:49.254Z,225
2018-04-13T11:28:59.072Z,220
2018-04-13T11:30:09.163Z,225
2018-04-13T11:31:19.042Z,225
2018-04-13T11:32:29.144Z,225
2018-04-13T11:33:39.178Z,225
2018-04-13T11:34:49.274Z,225
2018-04-13T11:35:59.345Z,225
2018-04-13T11:37:09.419Z,225
2018-04-13T11:38:19.233Z,225
2018-04-13T11:39:29.321Z,225
2018-04-13T11:48:41.820Z,225
2018-04-13T11:49:51.915Z,225
2018-04-13T11:51:01.475Z,225
2018-04-13T11:52:11.312Z,225
2018-04-13T11:53:21.427Z,225
2018-04-13T11:54:31.291Z,225
2018-04-13T11:55:41.377Z,225
2018-04-13T11:56:51.464Z,225
2018-04-13T11:58:01.547Z,225
2018-04-13T11:59:11.737Z,225
2018-04-13T12:00:22.008Z,225
2018-04-13T12:01:32.117Z,230
2018-04-13T12:02:42.334Z,225
2018-04-13T12:03:52.145Z,235
2018-04-13T12:05:02.292Z,230
2018-04-13T12:06:12.390Z,230
2018-04-13T12:07:22.472Z,225
2018-04-13T12:08:32.622Z,225
2018-04-13T12:09:42.725Z,225
2018-04-13T12:10:52.797Z,225
2018-04-13T12:12:02.870Z,230
2018-04-13T12:13:12.979Z,230
2018-04-13T12:14:23.051Z,230
2018-04-13T12:15:33.136Z,230
2018-04-13T12:16:43.237Z,230
2018-04-13T12:17:53.337Z,215
2018-04-13T12:19:03.173Z,225
2018-04-13T12:20:13.020Z,225
2018-04-13T12:21:23.132Z,225
2018-04-13T12:22:33.293Z,225
2018-04-13T12:23:43.395Z,225
2018-04-13T12:24:53.223Z,225
2018-04-13T12:26:03.320Z,225
2018-04-13T12:27:13.409Z,225
2018-04-13T12:28:23.518Z,225
2018-04-13T12:29:33.643Z,230
2018-04-13T12:30:43.471Z,230
2018-04-13T12:31:53.297Z,230
2018-04-13T12:33:03.116Z,225
2018-04-13T12:34:12.946Z,225
2018-04-13T12:35:23.045Z,220
2018-04-13T12:36:33.139Z,225
2018-04-13T12:37:42.975Z,225
2018-04-13T12:38:53.066Z,220
2018-04-13T12:40:03.201Z,220
2018-04-13T12:41:13.289Z,220
2018-04-13T12:42:23.387Z,220
2018-04-13T12:43:33.224Z,215
2018-04-13T12:44:43.324Z,215
2018-04-13T12:45:53.441Z,215
2018-04-13T12:47:03.563Z,215
2018-04-13T12:48:13.662Z,215
2018-04-13T12:49:23.758Z,215
2018-04-13T12:50:33.850Z,215
2018-04-13T12:51:43.967Z,215
2018-04-13T12:52:54.395Z,210
2018-04-13T12:54:04.335Z,210
2018-04-13T12:55:15.901Z,210
2018-04-13T12:56:26.242Z,210
2018-04-13T12:57:36.338Z,210
2018-04-13T12:58:46.432Z,210
2018-04-13T12:59:56.554Z,210
2018-04-13T13:01:06.390Z,210
2018-04-13T13:02:16.246Z,205
2018-04-13T13:03:26.395Z,205
2018-04-13T13:04:36.500Z,205
2018-04-13T13:05:46.588Z,205
2018-04-13T13:06:56.691Z,205
2018-04-13T13:08:06.807Z,205
2018-04-13T13:09:16.691Z,205
2018-04-13T13:10:26.800Z,205
2018-04-13T13:11:36.637Z,205
2018-04-13T13:12:46.716Z,205
2018-04-13T13:13:56.803Z,205
2018-04-13T13:15:06.951Z,205
2018-04-13T13:16:16.761Z,200
2018-04-13T13:17:26.585Z,205
2018-04-13T13:18:36.665Z,200
2018-04-13T13:19:46.814Z,200
2018-04-13T13:20:56.905Z,200
2018-04-13T13:22:06.992Z,200
2018-04-13T13:23:17.099Z,200
2018-04-13T13:24:27.178Z,200
2018-04-13T13:25:37.005Z,200
2018-04-13T13:26:47.136Z,200
2018-04-13T13:27:57.230Z,200
2018-04-13T13:29:07.342Z,200
2018-04-13T13:30:17.437Z,200
2018-04-13T13:31:27.550Z,200
2018-04-13T13:32:37.441Z,200
2018-04-13T13:33:47.284Z,200
2018-04-13T13:34:57.385Z,200
2018-04-13T13:36:07.490Z,195
2018-04-13T13:37:17.575Z,195
2018-04-13T13:38:27.707Z,195
2018-04-13T13:39:37.800Z,195
2018-04-13T13:40:47.617Z,195
2018-04-13T13:41:57.455Z,195
2018-04-13T13:43:07.291Z,195
2018-04-13T13:44:17.395Z,195
2018-04-13T13:45:27.215Z,190
2018-04-13T13:46:37.300Z,190
2018-04-13T13:47:47.414Z,190
2018-04-13T13:48:57.535Z,190
2018-04-13T13:50:07.628Z,190
2018-04-13T13:51:17.765Z,190
2018-04-13T13:52:27.870Z,190
2018-04-13T13:53:37.957Z,190
2018-04-13T13:54:47.886Z,190
2018-04-13T13:55:57.994Z,185
2018-04-13T13:57:08.100Z,185
2018-04-13T13:58:18.199Z,185
2018-04-13T13:59:28.029Z,185
2018-04-13T14:00:37.582Z,185
2018-04-13T14:01:47.710Z,185
2018-04-13T14:02:57.540Z,185
2018-04-13T14:04:07.804Z,185
2018-04-13T14:05:17.707Z,185
2018-04-13T14:06:27.801Z,180
2018-04-13T14:07:37.963Z,180
2018-04-13T14:08:47.783Z,180
2018-04-13T14:09:57.867Z,180
2018-04-13T14:11:07.973Z,180
2018-04-13T14:12:18.067Z,180
2018-04-13T14:13:28.205Z,175
2018-04-13T14:14:38.293Z,175
2018-04-13T14:15:48.385Z,175
2018-04-13T14:16:58.479Z,175
2018-04-13T14:18:08.814Z,175
2018-04-13T14:19:18.961Z,175
2018-04-13T14:20:29.044Z,170
2018-04-13T14:21:38.881Z,170
2018-04-13T14:22:48.833Z,170
2018-04-13T14:23:58.944Z,170
2018-04-13T14:25:09.030Z,170
2018-04-13T14:26:18.868Z,170
2018-04-13T14:27:28.968Z,170
2018-04-13T14:28:38.889Z,165
2018-04-13T14:29:48.859Z,165
2018-04-13T14:31:01.672Z,165
2018-04-13T14:32:12.171Z,165
2018-04-13T14:33:22.276Z,165
2018-04-13T14:34:32.415Z,165
2018-04-13T14:35:42.552Z,165
2018-04-13T14:36:52.935Z,160
2018-04-13T14:38:03.142Z,160
2018-04-13T14:39:12.995Z,160
2018-04-13T14:40:23.367Z,160
2018-04-13T14:41:33.526Z,160
2018-04-13T14:42:44.127Z,160
2018-04-13T14:43:54.259Z,155
2018-04-13T14:45:04.399Z,155
2018-04-13T14:46:14.230Z,155
2018-04-13T14:47:24.084Z,155
2018-04-13T14:48:34.225Z,155
2018-04-13T14:49:44.335Z,150
2018-04-13T14:50:54.322Z,150
2018-04-13T14:52:04.522Z,150
2018-04-13T14:53:15.505Z,150
2018-04-13T14:54:25.640Z,150
2018-04-13T14:55:35.740Z,150
2018-04-13T14:56:45.843Z,150
2018-04-13T14:57:55.941Z,145
2018-04-13T14:59:06.340Z,145
2018-04-13T15:00:16.192Z,145
2018-04-13T15:01:26.049Z,145
2018-04-13T15:02:36.177Z,145
2018-04-13T15:03:46.283Z,145
2018-04-13T15:04:56.372Z,145
2018-04-13T15:06:06.511Z,145
2018-04-13T15:07:16.633Z,145
2018-04-13T15:08:26.469Z,145
2018-04-13T15:09:36.597Z,140
2018-04-13T15:10:46.728Z,140
2018-04-13T15:11:56.855Z,140
2018-04-13T15:13:06.962Z,140
2018-04-13T15:14:17.049Z,140
2018-04-13T15:15:26.882Z,140
2018-04-13T15:16:36.723Z,135
2018-04-13T15:17:46.899Z,135
2018-04-13T15:18:56.728Z,135
2018-04-13T15:20:06.823Z,135
2018-04-13T15:21:16.720Z,135
2018-04-13T15:22:26.827Z,130
2018-04-13T15:23:36.917Z,130
2018-04-13T15:24:47.026Z,130
2018-04-13T15:25:57.325Z,130
2018-04-13T15:27:07.444Z,130
2018-04-13T15:28:17.049Z,130
2018-04-13T15:29:27.180Z,125
2018-04-13T15:30:37.277Z,125
2018-04-13T15:31:47.129Z,125
2018-04-13T15:32:57.223Z,125
2018-04-13T15:34:08.184Z,125
2018-04-13T15:35:17.872Z,120
2018-04-13T15:36:27.968Z,120
2018-04-13T15:37:38.079Z,120
2018-04-13T15:38:48.183Z,120
2018-04-13T15:39:58.279Z,120
2018-04-13T15:41:08.384Z,115
2018-04-13T15:42:18.236Z,115
2018-04-13T15:43:28.381Z,115
2018-04-13T15:44:38.217Z,115
2018-04-13T15:45:48.341Z,110
2018-04-13T15:46:58.493Z,110
2018-04-13T15:48:08.565Z,110
2018-04-13T15:49:18.662Z,110
2018-04-13T15:50:28.776Z,110
2018-04-13T15:51:39.197Z,105
2018-04-13T15:52:49.443Z,105
2018-04-13T15:53:59.516Z,105
2018-04-13T15:55:09.661Z,105
2018-04-13T15:56:19.784Z,105
2018-04-13T15:57:29.895Z,100
2018-04-13T15:58:39.996Z,100
2018-04-13T15:59:50.594Z,100
2018-04-13T16:01:00.729Z,100
2018-04-13T16:02:10.552Z,100
2018-04-13T16:03:20.668Z,100
2018-04-13T16:04:30.813Z,100
2018-04-13T16:05:40.905Z,100
2018-04-13T16:06:51.434Z,95
2018-04-13T16:08:01.604Z,95
2018-04-13T16:09:11.708Z,95
2018-04-13T16:10:21.857Z,95
2018-04-13T16:11:31.681Z,90
2018-04-13T16:12:41.798Z,90
2018-04-13T16:13:51.861Z,90
2018-04-13T16:15:01.685Z,90
2018-04-13T16:16:11.571Z,85
2018-04-13T16:17:21.801Z,85
2018-04-13T16:18:31.659Z,85
2018-04-13T16:19:41.778Z,85
2018-04-13T16:20:51.874Z,85
2018-04-13T16:22:01.976Z,80
2018-04-13T16:23:12.092Z,80
2018-04-13T16:24:22.168Z,80
2018-04-13T16:25:32.268Z,75
2018-04-13T16:26:42.563Z,75
2018-04-13T16:27:52.416Z,75
2018-04-13T16:29:02.541Z,75
2018-04-13T16:30:12.149Z,70
2018-04-13T16:31:22.256Z,70
2018-04-13T16:32:32.771Z,70
2018-04-13T16:33:42.919Z,65
2018-04-13T16:34:53.022Z,65
2018-04-13T16:36:03.124Z,65
2018-04-13T16:37:13.212Z,65
2018-04-13T16:38:23.319Z,60
2018-04-13T16:39:33.420Z,60
2018-04-13T16:40:43.526Z,60
2018-04-13T16:41:53.616Z,60
2018-04-13T16:43:03.730Z,60
2018-04-13T16:44:13.851Z,60
2018-04-13T16:45:23.941Z,60
2018-04-13T16:46:34.026Z,55
2018-04-13T16:47:44.144Z,55
2018-04-13T16:48:53.978Z,55
2018-04-13T16:50:04.120Z,50
2018-04-13T16:51:14.279Z,50
2018-04-13T16:52:24.380Z,50
2018-04-13T16:53:34.496Z,50
2018-04-13T16:54:44.630Z,45
2018-04-13T16:55:54.768Z,45
2018-04-13T16:57:04.928Z,45
2018-04-13T16:58:15.029Z,40
2018-04-13T16:59:25.126Z,40
2018-04-13T17:00:35.235Z,40
2018-04-13T17:01:45.322Z,40
2018-04-13T17:02:55.178Z,35
2018-04-13T17:04:05.019Z,35